Minquadale, Delaware
Current Conditions -  °F | °C
As of 11:04 AM on Monday 24 Nov 2014 (Local Time) from KILG Reporting Station
Broken Clouds Broken Clouds  
Wind Chill: 72°   Ceiling: 2500
Heat Index: 72°   Visibility: 10mi
Dew Point: 60°   Wind: 17mph
Humidity: 66%   Direction: 200°SSW
Pressure: 29.68"   Gusts: 24mph
Location:  39.6483°N, 75.6041°W
Report Text: KILG 241604Z 20015G21KT 10SM BKN025 BKN031 22/16 A2968 RMK AO2 T02220156
Loading
Personal Weather Stations






























Interactive Weather Map New forecast layout! Learn more

10-Day Weather Forecast

Advertisements
Track Severe Weather on mobile